Terminal Aerodrome Forecast
Issued by NWS Duluth, MN

Home | Current Version | Previous Version | Text Only | Print | Product List | Glossary On
Versions: 1 2 3 4 5 6 7 8 9 10 11 12 13 14 15 16 17 18 19 20 21 22 23 24
000
FTUS43 KDLH 260900 AAA
TAFINL
TAF AMD
KINL 260917Z 2609/2706 18007KT P6SM VCSH OVC016
      TEMPO 2609/2612 3SM -SN VV005
     FM261200 18006KT P6SM VCSH OVC009
      TEMPO 2612/2615 2SM -SN OVC020
     FM261500 25006KT 5SM -FZDZSN BR OVC008
     FM261900 30008KT P6SM OVC015=

USA.gov is the U.S. government's official web portal to all federal, state and local government web resources and services.